sensor_id;sensor_type;location;lat;lon;timestamp;pressure;altitude;pressure_sealevel;temperature;humidity
37832;BME280;23671;38.090;-122.570;2023-04-07T00:00:57;101643.34;;;18.86;49.72
37832;BME280;23671;38.090;-122.570;2023-04-07T00:03:24;101647.03;;;18.85;49.56
37832;BME280;23671;38.090;-122.570;2023-04-07T00:05:51;101639.53;;;18.89;49.84
37832;BME280;23671;38.090;-122.570;2023-04-07T00:08:18;101636.00;;;18.88;49.78
37832;BME280;23671;38.090;-122.570;2023-04-07T00:10:45;101640.38;;;18.89;50.18
37832;BME280;23671;38.090;-122.570;2023-04-07T00:13:15;101635.31;;;18.86;49.90
37832;BME280;23671;38.090;-122.570;2023-04-07T00:15:42;101636.84;;;18.89;49.85
37832;BME280;23671;38.090;-122.570;2023-04-07T00:18:09;101637.13;;;18.86;49.89
37832;BME280;23671;38.090;-122.570;2023-04-07T00:20:36;101635.31;;;18.86;50.03
37832;BME280;23671;38.090;-122.570;2023-04-07T00:23:03;101627.00;;;18.89;50.09
37832;BME280;23671;38.090;-122.570;2023-04-07T00:25:30;101629.94;;;18.86;49.99
37832;BME280;23671;38.090;-122.570;2023-04-07T00:27:57;101625.63;;;18.85;50.10
37832;BME280;23671;38.090;-122.570;2023-04-07T00:30:24;101621.41;;;18.83;50.33
37832;BME280;23671;38.090;-122.570;2023-04-07T00:32:51;101627.13;;;18.88;50.25
37832;BME280;23671;38.090;-122.570;2023-04-07T00:35:18;101624.75;;;18.85;50.19
37832;BME280;23671;38.090;-122.570;2023-04-07T00:37:45;101625.63;;;18.85;50.07
37832;BME280;23671;38.090;-122.570;2023-04-07T00:40:12;101620.72;;;18.81;50.42
37832;BME280;23671;38.090;-122.570;2023-04-07T00:42:39;101622.25;;;18.83;50.33
37832;BME280;23671;38.090;-122.570;2023-04-07T00:45:06;101622.25;;;18.83;50.32
37832;BME280;23671;38.090;-122.570;2023-04-07T00:47:34;101623.22;;;18.82;50.24
37832;BME280;23671;38.090;-122.570;2023-04-07T00:50:03;101611.53;;;18.83;50.27
37832;BME280;23671;38.090;-122.570;2023-04-07T00:52:32;101621.25;;;18.84;50.39
37832;BME280;23671;38.090;-122.570;2023-04-07T00:55:02;101617.88;;;18.82;50.23
37832;BME280;23671;38.090;-122.570;2023-04-07T00:57:29;101622.41;;;18.82;50.24
37832;BME280;23671;38.090;-122.570;2023-04-07T00:59:56;101629.59;;;18.81;50.44
37832;BME280;23671;38.090;-122.570;2023-04-07T01:02:30;101619.84;;;18.80;50.45
37832;BME280;23671;38.090;-122.570;2023-04-07T01:05:15;101627.06;;;18.80;50.48
37832;BME280;23671;38.090;-122.570;2023-04-07T01:08:00;101634.41;;;18.78;50.51
37832;BME280;23671;38.090;-122.570;2023-04-07T01:10:43;101642.44;;;18.78;50.69
37832;BME280;23671;38.090;-122.570;2023-04-07T01:15:59;101642.88;;;18.73;50.74
37832;BME280;23671;38.090;-122.570;2023-04-07T01:18:32;101645.72;;;18.72;50.82
37832;BME280;23671;38.090;-122.570;2023-04-07T01:21:06;101646.00;;;18.69;50.98
37832;BME280;23671;38.090;-122.570;2023-04-07T01:26:30;101643.78;;;18.64;50.99
37832;BME280;23671;38.090;-122.570;2023-04-07T01:31:51;101636.19;;;18.60;51.13
37832;BME280;23671;38.090;-122.570;2023-04-07T01:34:21;101637.34;;;18.57;51.23
37832;BME280;23671;38.090;-122.570;2023-04-07T01:36:50;101642.31;;;18.52;51.21
37832;BME280;23671;38.090;-122.570;2023-04-07T01:39:18;101638.94;;;18.50;51.32
37832;BME280;23671;38.090;-122.570;2023-04-07T01:41:46;101642.47;;;18.51;51.13
37832;BME280;23671;38.090;-122.570;2023-04-07T01:44:13;101647.28;;;18.47;51.24
37832;BME280;23671;38.090;-122.570;2023-04-07T01:46:41;101647.56;;;18.44;51.44
37832;BME280;23671;38.090;-122.570;2023-04-07T01:49:08;101637.97;;;18.42;51.22
37832;BME280;23671;38.090;-122.570;2023-04-07T01:51:37;101641.91;;;18.38;51.28
37832;BME280;23671;38.090;-122.570;2023-04-07T01:54:05;101635.06;;;18.35;51.42
37832;BME280;23671;38.090;-122.570;2023-04-07T01:56:33;101634.38;;;18.33;51.43
37832;BME280;23671;38.090;-122.570;2023-04-07T01:59:00;101628.47;;;18.30;51.54
37832;BME280;23671;38.090;-122.570;2023-04-07T02:01:28;101628.59;;;18.28;51.28
37832;BME280;23671;38.090;-122.570;2023-04-07T02:04:04;101631.59;;;18.25;51.53
37832;BME280;23671;38.090;-122.570;2023-04-07T02:07:00;101624.00;;;18.21;51.08
37832;BME280;23671;38.090;-122.570;2023-04-07T02:09:31;101623.47;;;18.17;51.14
37832;BME280;23671;38.090;-122.570;2023-04-07T02:12:00;101627.41;;;18.13;51.32
37832;BME280;23671;38.090;-122.570;2023-04-07T02:14:29;101621.53;;;18.09;50.92
37832;BME280;23671;38.090;-122.570;2023-04-07T02:16:58;101630.56;;;18.08;50.93
37832;BME280;23671;38.090;-122.570;2023-04-07T02:19:27;101622.97;;;18.04;50.51
37832;BME280;23671;38.090;-122.570;2023-04-07T02:21:56;101632.25;;;18.00;50.31
37832;BME280;23671;38.090;-122.570;2023-04-07T02:24:23;101633.38;;;17.97;50.32
37832;BME280;23671;38.090;-122.570;2023-04-07T02:26:50;101637.34;;;17.93;50.17
37832;BME280;23671;38.090;-122.570;2023-04-07T02:29:17;101631.44;;;17.90;49.86
37832;BME280;23671;38.090;-122.570;2023-04-07T02:31:44;101631.06;;;17.85;49.37
37832;BME280;23671;38.090;-122.570;2023-04-07T02:34:11;101638.38;;;17.83;49.15
37832;BME280;23671;38.090;-122.570;2023-04-07T02:36:38;101638.66;;;17.80;48.82
37832;BME280;23671;38.090;-122.570;2023-04-07T02:39:08;101637.13;;;17.77;48.60
37832;BME280;23671;38.090;-122.570;2023-04-07T02:41:39;101646.00;;;17.78;48.52
37832;BME280;23671;38.090;-122.570;2023-04-07T02:44:06;101640.22;;;17.73;48.23
37832;BME280;23671;38.090;-122.570;2023-04-07T02:46:33;101640.66;;;17.68;48.37
37832;BME280;23671;38.090;-122.570;2023-04-07T02:49:00;101636.59;;;17.64;48.44
37832;BME280;23671;38.090;-122.570;2023-04-07T02:51:28;101636.03;;;17.61;48.11
37832;BME280;23671;38.090;-122.570;2023-04-07T02:53:55;101634.63;;;17.57;48.04
37832;BME280;23671;38.090;-122.570;2023-04-07T02:56:22;101635.78;;;17.54;48.00
37832;BME280;23671;38.090;-122.570;2023-04-07T02:58:49;101632.94;;;17.46;47.88
37832;BME280;23671;38.090;-122.570;2023-04-07T03:01:16;101634.06;;;17.44;48.08
37832;BME280;23671;38.090;-122.570;2023-04-07T03:03:43;101639.00;;;17.39;47.49
37832;BME280;23671;38.090;-122.570;2023-04-07T03:06:10;101645.19;;;17.39;47.59
37832;BME280;23671;38.090;-122.570;2023-04-07T03:08:37;101640.56;;;17.32;47.73
37832;BME280;23671;38.090;-122.570;2023-04-07T03:11:04;101631.72;;;17.21;47.90
37832;BME280;23671;38.090;-122.570;2023-04-07T03:13:31;101631.28;;;17.16;48.11
37832;BME280;23671;38.090;-122.570;2023-04-07T03:15:58;101636.34;;;17.19;48.21
37832;BME280;23671;38.090;-122.570;2023-04-07T03:18:25;101640.13;;;17.17;47.50
37832;BME280;23671;38.090;-122.570;2023-04-07T03:20:52;101650.41;;;17.12;47.97
37832;BME280;23671;38.090;-122.570;2023-04-07T03:23:21;101657.28;;;17.05;47.49
37832;BME280;23671;38.090;-122.570;2023-04-07T03:25:49;101659.69;;;17.08;47.95
37832;BME280;23671;38.090;-122.570;2023-04-07T03:28:16;101655.44;;;16.96;47.82
37832;BME280;23671;38.090;-122.570;2023-04-07T03:30:43;101660.50;;;16.89;48.07
37832;BME280;23671;38.090;-122.570;2023-04-07T03:33:10;101668.50;;;16.89;47.37
37832;BME280;23671;38.090;-122.570;2023-04-07T03:35:37;101668.06;;;16.84;47.69
37832;BME280;23671;38.090;-122.570;2023-04-07T03:38:04;101668.38;;;16.81;48.34
37832;BME280;23671;38.090;-122.570;2023-04-07T03:40:31;101672.28;;;16.77;48.28
37832;BME280;23671;38.090;-122.570;2023-04-07T03:42:59;101664.69;;;16.73;47.01
37832;BME280;23671;38.090;-122.570;2023-04-07T03:45:26;101660.22;;;16.73;46.84
37832;BME280;23671;38.090;-122.570;2023-04-07T03:47:53;101663.41;;;16.67;46.09
37832;BME280;23671;38.090;-122.570;2023-04-07T03:50:20;101650.34;;;16.64;46.11
37832;BME280;23671;38.090;-122.570;2023-04-07T03:52:47;101647.13;;;16.61;46.19
37832;BME280;23671;38.090;-122.570;2023-04-07T03:55:14;101647.25;;;16.59;46.06
37832;BME280;23671;38.090;-122.570;2023-04-07T03:57:41;101650.59;;;16.52;45.91
37832;BME280;23671;38.090;-122.570;2023-04-07T04:00:08;101648.91;;;16.51;46.21
37832;BME280;23671;38.090;-122.570;2023-04-07T04:02:35;101647.59;;;16.45;45.99
37832;BME280;23671;38.090;-122.570;2023-04-07T04:05:03;101648.59;;;16.44;46.36
37832;BME280;23671;38.090;-122.570;2023-04-07T04:07:30;101654.75;;;16.35;46.08
37832;BME280;23671;38.090;-122.570;2023-04-07T04:09:58;101660.63;;;16.29;46.42
37832;BME280;23671;38.090;-122.570;2023-04-07T04:12:25;101655.69;;;16.24;46.24
37832;BME280;23671;38.090;-122.570;2023-04-07T04:14:52;101663.97;;;16.21;46.20
37832;BME280;23671;38.090;-122.570;2023-04-07T04:17:19;101669.53;;;16.18;46.49
37832;BME280;23671;38.090;-122.570;2023-04-07T04:19:46;101672.34;;;16.17;46.49
37832;BME280;23671;38.090;-122.570;2023-04-07T04:22:13;101672.03;;;16.10;46.26
37832;BME280;23671;38.090;-122.570;2023-04-07T04:24:40;101674.41;;;16.04;46.63
37832;BME280;23671;38.090;-122.570;2023-04-07T04:27:07;101672.84;;;16.01;46.71
37832;BME280;23671;38.090;-122.570;2023-04-07T04:29:34;101681.22;;;15.97;46.47
37832;BME280;23671;38.090;-122.570;2023-04-07T04:32:01;101674.22;;;15.96;46.75
37832;BME280;23671;38.090;-122.570;2023-04-07T04:34:28;101683.16;;;15.95;46.78
37832;BME280;23671;38.090;-122.570;2023-04-07T04:36:55;101691.56;;;15.90;46.70
37832;BME280;23671;38.090;-122.570;2023-04-07T04:39:22;101699.69;;;15.89;46.59
37832;BME280;23671;38.090;-122.570;2023-04-07T04:41:49;101699.22;;;15.84;46.58
37832;BME280;23671;38.090;-122.570;2023-04-07T04:44:16;101700.31;;;15.81;46.82
37832;BME280;23671;38.090;-122.570;2023-04-07T04:46:43;101711.38;;;15.77;46.87
37832;BME280;23671;38.090;-122.570;2023-04-07T04:49:10;101712.63;;;15.73;47.09
37832;BME280;23671;38.090;-122.570;2023-04-07T04:51:37;101712.41;;;15.65;47.15
37832;BME280;23671;38.090;-122.570;2023-04-07T04:54:04;101709.88;;;15.63;47.19
37832;BME280;23671;38.090;-122.570;2023-04-07T04:56:32;101710.75;;;15.64;47.15
37832;BME280;23671;38.090;-122.570;2023-04-07T04:58:59;101692.50;;;15.59;47.06
37832;BME280;23671;38.090;-122.570;2023-04-07T05:01:26;101701.97;;;15.52;47.27
37832;BME280;23671;38.090;-122.570;2023-04-07T05:03:53;101698.47;;;15.52;47.49
37832;BME280;23671;38.090;-122.570;2023-04-07T05:06:20;101703.06;;;15.50;47.24
37832;BME280;23671;38.090;-122.570;2023-04-07T05:08:47;101702.06;;;15.51;47.13
37832;BME280;23671;38.090;-122.570;2023-04-07T05:11:15;101708.09;;;15.64;46.81
37832;BME280;23671;38.090;-122.570;2023-04-07T05:13:42;101714.13;;;15.66;46.93
37832;BME280;23671;38.090;-122.570;2023-04-07T05:16:09;101708.25;;;15.72;47.07
37832;BME280;23671;38.090;-122.570;2023-04-07T05:18:36;101707.16;;;15.74;46.49
37832;BME280;23671;38.090;-122.570;2023-04-07T05:21:03;101702.09;;;15.71;46.63
37832;BME280;23671;38.090;-122.570;2023-04-07T05:23:30;101698.38;;;15.63;46.79
37832;BME280;23671;38.090;-122.570;2023-04-07T05:25:57;101693.44;;;15.58;46.54
37832;BME280;23671;38.090;-122.570;2023-04-07T05:28:24;101690.59;;;15.50;47.08
37832;BME280;23671;38.090;-122.570;2023-04-07T05:30:51;101696.44;;;15.44;46.99
37832;BME280;23671;38.090;-122.570;2023-04-07T05:33:18;101695.50;;;15.34;47.17
37832;BME280;23671;38.090;-122.570;2023-04-07T05:35:46;101693.19;;;15.29;47.42
37832;BME280;23671;38.090;-122.570;2023-04-07T05:38:13;101690.31;;;15.21;47.44
37832;BME280;23671;38.090;-122.570;2023-04-07T05:40:42;101689.88;;;15.16;47.77
37832;BME280;23671;38.090;-122.570;2023-04-07T05:43:09;101685.91;;;15.11;47.87
37832;BME280;23671;38.090;-122.570;2023-04-07T05:45:36;101689.53;;;15.10;47.94
37832;BME280;23671;38.090;-122.570;2023-04-07T05:48:03;101683.88;;;15.03;47.84
37832;BME280;23671;38.090;-122.570;2023-04-07T05:50:30;101687.63;;;15.01;47.93
37832;BME280;23671;38.090;-122.570;2023-04-07T05:52:57;101683.41;;;14.98;48.07
37832;BME280;23671;38.090;-122.570;2023-04-07T05:55:24;101683.94;;;14.92;48.18
37832;BME280;23671;38.090;-122.570;2023-04-07T05:57:51;101678.72;;;14.91;48.23
37832;BME280;23671;38.090;-122.570;2023-04-07T06:00:18;101682.50;;;14.88;48.41
37832;BME280;23671;38.090;-122.570;2023-04-07T06:02:45;101686.09;;;14.87;48.26
37832;BME280;23671;38.090;-122.570;2023-04-07T06:05:12;101685.50;;;14.84;48.28
37832;BME280;23671;38.090;-122.570;2023-04-07T06:07:39;101674.28;;;14.80;48.59
37832;BME280;23671;38.090;-122.570;2023-04-07T06:10:07;101677.16;;;14.77;48.43
37832;BME280;23671;38.090;-122.570;2023-04-07T06:12:34;101665.13;;;14.73;48.61
37832;BME280;23671;38.090;-122.570;2023-04-07T06:15:01;101666.09;;;14.72;48.52
37832;BME280;23671;38.090;-122.570;2023-04-07T06:17:28;101668.28;;;14.67;48.51
37832;BME280;23671;38.090;-122.570;2023-04-07T06:19:56;101673.59;;;14.67;48.66
37832;BME280;23671;38.090;-122.570;2023-04-07T06:22:23;101671.16;;;14.64;48.56
37832;BME280;23671;38.090;-122.570;2023-04-07T06:24:50;101669.63;;;14.62;48.82
37832;BME280;23671;38.090;-122.570;2023-04-07T06:27:17;101665.97;;;14.63;48.84
37832;BME280;23671;38.090;-122.570;2023-04-07T06:29:44;101658.38;;;14.58;48.55
37832;BME280;23671;38.090;-122.570;2023-04-07T06:32:11;101651.03;;;14.62;48.80
37832;BME280;23671;38.090;-122.570;2023-04-07T06:34:39;101641.47;;;14.59;48.62
37832;BME280;23671;38.090;-122.570;2023-04-07T06:37:06;101648.94;;;14.54;48.88
37832;BME280;23671;38.090;-122.570;2023-04-07T06:39:33;101645.69;;;14.50;48.81
37832;BME280;23671;38.090;-122.570;2023-04-07T06:42:00;101644.88;;;14.50;48.77
37832;BME280;23671;38.090;-122.570;2023-04-07T06:44:30;101650.56;;;14.45;48.93
37832;BME280;23671;38.090;-122.570;2023-04-07T06:46:57;101659.38;;;14.46;49.10
37832;BME280;23671;38.090;-122.570;2023-04-07T06:49:24;101660.69;;;14.40;48.88
37832;BME280;23671;38.090;-122.570;2023-04-07T06:51:51;101655.28;;;14.42;48.88
37832;BME280;23671;38.090;-122.570;2023-04-07T06:54:18;101650.91;;;14.41;49.02
37832;BME280;23671;38.090;-122.570;2023-04-07T06:56:45;101647.78;;;14.36;49.02
37832;BME280;23671;38.090;-122.570;2023-04-07T06:59:12;101645.38;;;14.33;48.96
37832;BME280;23671;38.090;-122.570;2023-04-07T07:01:39;101641.16;;;14.30;49.25
37832;BME280;23671;38.090;-122.570;2023-04-07T07:04:07;101640.44;;;14.28;49.00
37832;BME280;23671;38.090;-122.570;2023-04-07T07:06:34;101644.16;;;14.26;49.26
37832;BME280;23671;38.090;-122.570;2023-04-07T07:09:01;101649.47;;;14.26;49.46
37832;BME280;23671;38.090;-122.570;2023-04-07T07:11:28;101640.88;;;14.22;49.49
37832;BME280;23671;38.090;-122.570;2023-04-07T07:13:56;101636.06;;;14.27;49.50
37832;BME280;23671;38.090;-122.570;2023-04-07T07:16:23;101651.53;;;14.22;49.12
37832;BME280;23671;38.090;-122.570;2023-04-07T07:18:50;101648.00;;;14.22;49.39
37832;BME280;23671;38.090;-122.570;2023-04-07T07:21:18;101639.19;;;14.21;49.36
37832;BME280;23671;38.090;-122.570;2023-04-07T07:23:45;101635.94;;;14.18;49.27
37832;BME280;23671;38.090;-122.570;2023-04-07T07:26:12;101647.28;;;14.20;49.51
37832;BME280;23671;38.090;-122.570;2023-04-07T07:28:39;101638.00;;;14.14;49.25
37832;BME280;23671;38.090;-122.570;2023-04-07T07:31:10;101637.13;;;14.14;49.63
37832;BME280;23671;38.090;-122.570;2023-04-07T07:33:41;101623.03;;;14.13;49.65
37832;BME280;23671;38.090;-122.570;2023-04-07T07:36:11;101628.56;;;14.10;49.64
37832;BME280;23671;38.090;-122.570;2023-04-07T07:38:38;101642.84;;;14.09;49.83
37832;BME280;23671;38.090;-122.570;2023-04-07T07:41:09;101637.53;;;14.09;49.28
37832;BME280;23671;38.090;-122.570;2023-04-07T07:43:36;101636.81;;;14.07;49.40
37832;BME280;23671;38.090;-122.570;2023-04-07T07:46:03;101627.84;;;14.08;49.23
37832;BME280;23671;38.090;-122.570;2023-04-07T07:48:30;101629.91;;;14.05;49.46
37832;BME280;23671;38.090;-122.570;2023-04-07T07:50:57;101633.41;;;14.05;49.69
37832;BME280;23671;38.090;-122.570;2023-04-07T07:53:25;101624.59;;;14.05;49.80
37832;BME280;23671;38.090;-122.570;2023-04-07T07:55:52;101633.66;;;14.02;49.71
37832;BME280;23671;38.090;-122.570;2023-04-07T07:58:21;101631.13;;;14.01;49.65
37832;BME280;23671;38.090;-122.570;2023-04-07T08:00:48;101632.69;;;14.03;49.74
37832;BME280;23671;38.090;-122.570;2023-04-07T08:03:16;101629.66;;;13.97;49.83
37832;BME280;23671;38.090;-122.570;2023-04-07T08:05:45;101624.47;;;13.95;49.77
37832;BME280;23671;38.090;-122.570;2023-04-07T08:08:15;101605.03;;;13.95;49.83
37832;BME280;23671;38.090;-122.570;2023-04-07T08:10:42;101611.22;;;13.95;49.88
37832;BME280;23671;38.090;-122.570;2023-04-07T08:13:09;101606.03;;;13.94;49.73
37832;BME280;23671;38.090;-122.570;2023-04-07T08:15:36;101606.25;;;13.91;49.71
37832;BME280;23671;38.090;-122.570;2023-04-07T08:18:03;101593.81;;;13.91;50.17
37832;BME280;23671;38.090;-122.570;2023-04-07T08:20:32;101601.53;;;13.94;49.50
37832;BME280;23671;38.090;-122.570;2023-04-07T08:22:59;101603.25;;;13.95;49.88
37832;BME280;23671;38.090;-122.570;2023-04-07T08:25:30;101593.69;;;13.93;50.18
37832;BME280;23671;38.090;-122.570;2023-04-07T08:27:57;101590.31;;;13.91;50.13
37832;BME280;23671;38.090;-122.570;2023-04-07T08:30:24;101593.34;;;13.86;49.87
37832;BME280;23671;38.090;-122.570;2023-04-07T08:32:51;101590.44;;;13.89;49.83
37832;BME280;23671;38.090;-122.570;2023-04-07T08:35:18;101590.69;;;13.86;50.35
37832;BME280;23671;38.090;-122.570;2023-04-07T08:37:45;101594.19;;;13.87;49.81
37832;BME280;23671;38.090;-122.570;2023-04-07T08:40:12;101589.97;;;13.84;50.04
37832;BME280;23671;38.090;-122.570;2023-04-07T08:42:42;101583.22;;;13.80;50.30
37832;BME280;23671;38.090;-122.570;2023-04-07T08:45:11;101579.47;;;13.83;50.14
37832;BME280;23671;38.090;-122.570;2023-04-07T08:47:39;101580.91;;;13.76;50.49
37832;BME280;23671;38.090;-122.570;2023-04-07T08:50:11;101594.06;;;13.77;50.16
37832;BME280;23671;38.090;-122.570;2023-04-07T08:52:44;101583.44;;;13.77;50.26
37832;BME280;23671;38.090;-122.570;2023-04-07T08:55:12;101587.06;;;13.76;50.12
37832;BME280;23671;38.090;-122.570;2023-04-07T08:57:41;101593.59;;;13.72;50.45
37832;BME280;23671;38.090;-122.570;2023-04-07T09:00:09;101595.16;;;13.75;50.25
37832;BME280;23671;38.090;-122.570;2023-04-07T09:02:39;101584.78;;;13.72;50.91
37832;BME280;23671;38.090;-122.570;2023-04-07T09:05:08;101590.22;;;13.70;50.83
37832;BME280;23671;38.090;-122.570;2023-04-07T09:07:37;101593.94;;;13.67;50.57
37832;BME280;23671;38.090;-122.570;2023-04-07T09:10:13;101587.81;;;13.67;50.43
37832;BME280;23671;38.090;-122.570;2023-04-07T09:12:42;101583.44;;;13.66;50.76
37832;BME280;23671;38.090;-122.570;2023-04-07T09:15:09;101588.50;;;13.69;50.92
37832;BME280;23671;38.090;-122.570;2023-04-07T09:17:36;101590.56;;;13.65;50.84
37832;BME280;23671;38.090;-122.570;2023-04-07T09:20:03;101580.78;;;13.66;50.86
37832;BME280;23671;38.090;-122.570;2023-04-07T09:22:38;101575.59;;;13.64;50.66
37832;BME280;23671;38.090;-122.570;2023-04-07T09:25:21;101580.19;;;13.62;50.55
37832;BME280;23671;38.090;-122.570;2023-04-07T09:28:02;101574.75;;;13.64;50.49
37832;BME280;23671;38.090;-122.570;2023-04-07T09:30:33;101565.22;;;13.61;50.76
37832;BME280;23671;38.090;-122.570;2023-04-07T09:33:00;101560.88;;;13.60;51.29
37832;BME280;23671;38.090;-122.570;2023-04-07T09:35:27;101557.25;;;13.61;51.04
37832;BME280;23671;38.090;-122.570;2023-04-07T09:38:06;101565.59;;;13.57;51.09
37832;BME280;23671;38.090;-122.570;2023-04-07T09:40:34;101558.59;;;13.56;51.46
37832;BME280;23671;38.090;-122.570;2023-04-07T09:43:03;101545.91;;;13.59;50.64
37832;BME280;23671;38.090;-122.570;2023-04-07T09:45:31;101557.63;;;13.57;51.06
37832;BME280;23671;38.090;-122.570;2023-04-07T09:48:05;101549.91;;;13.54;51.03
37832;BME280;23671;38.090;-122.570;2023-04-07T09:50:35;101553.41;;;13.54;50.89
37832;BME280;23671;38.090;-122.570;2023-04-07T09:53:02;101545.44;;;13.54;51.34
37832;BME280;23671;38.090;-122.570;2023-04-07T09:55:30;101539.53;;;13.51;51.49
37832;BME280;23671;38.090;-122.570;2023-04-07T09:57:57;101546.53;;;13.52;50.98
37832;BME280;23671;38.090;-122.570;2023-04-07T10:00:25;101535.09;;;13.51;51.70
37832;BME280;23671;38.090;-122.570;2023-04-07T10:02:52;101543.78;;;13.53;51.66
37832;BME280;23671;38.090;-122.570;2023-04-07T10:05:19;101545.78;;;13.50;51.65
37832;BME280;23671;38.090;-122.570;2023-04-07T10:07:47;101541.69;;;13.46;51.77
37832;BME280;23671;38.090;-122.570;2023-04-07T10:10:15;101540.88;;;13.45;51.16
37832;BME280;23671;38.090;-122.570;2023-04-07T10:12:43;101540.88;;;13.45;51.05
37832;BME280;23671;38.090;-122.570;2023-04-07T10:15:13;101545.31;;;13.45;52.02
37832;BME280;23671;38.090;-122.570;2023-04-07T10:17:47;101531.19;;;13.44;51.66
37832;BME280;23671;38.090;-122.570;2023-04-07T10:20:17;101518.78;;;13.45;51.66
37832;BME280;23671;38.090;-122.570;2023-04-07T10:22:48;101518.91;;;13.43;51.21
37832;BME280;23671;38.090;-122.570;2023-04-07T10:25:19;101520.13;;;13.39;51.61
37832;BME280;23671;38.090;-122.570;2023-04-07T10:28:00;101519.13;;;13.40;51.85
37832;BME280;23671;38.090;-122.570;2023-04-07T10:30:32;101523.72;;;13.38;51.89
37832;BME280;23671;38.090;-122.570;2023-04-07T10:32:59;101517.47;;;13.39;51.87
37832;BME280;23671;38.090;-122.570;2023-04-07T10:35:26;101508.06;;;13.35;51.74
37832;BME280;23671;38.090;-122.570;2023-04-07T10:38:14;101518.41;;;13.38;52.05
37832;BME280;23671;38.090;-122.570;2023-04-07T10:40:42;101516.00;;;13.35;51.97
37832;BME280;23671;38.090;-122.570;2023-04-07T10:43:10;101513.09;;;13.38;51.53
37832;BME280;23671;38.090;-122.570;2023-04-07T10:48:25;101519.59;;;13.34;51.84
37832;BME280;23671;38.090;-122.570;2023-04-07T10:53:29;101516.38;;;13.31;51.83
37832;BME280;23671;38.090;-122.570;2023-04-07T10:55:59;101519.13;;;13.29;51.47
37832;BME280;23671;38.090;-122.570;2023-04-07T10:58:26;101519.88;;;13.31;52.37
37832;BME280;23671;38.090;-122.570;2023-04-07T11:03:56;101516.38;;;13.31;51.82
37832;BME280;23671;38.090;-122.570;2023-04-07T11:06:26;101517.94;;;13.33;51.62
37832;BME280;23671;38.090;-122.570;2023-04-07T11:08:54;101512.75;;;13.32;51.95
37832;BME280;23671;38.090;-122.570;2023-04-07T11:11:35;101506.13;;;13.26;51.89
37832;BME280;23671;38.090;-122.570;2023-04-07T11:14:04;101513.22;;;13.26;52.19
37832;BME280;23671;38.090;-122.570;2023-04-07T11:16:40;101503.34;;;13.28;51.65
37832;BME280;23671;38.090;-122.570;2023-04-07T11:19:07;101513.09;;;13.27;51.90
37832;BME280;23671;38.090;-122.570;2023-04-07T11:21:34;101521.31;;;13.24;52.12
37832;BME280;23671;38.090;-122.570;2023-04-07T11:24:02;101514.09;;;13.26;52.02
37832;BME280;23671;38.090;-122.570;2023-04-07T11:26:29;101507.94;;;13.26;52.02
37832;BME280;23671;38.090;-122.570;2023-04-07T11:29:02;101493.81;;;13.25;51.89
37832;BME280;23671;38.090;-122.570;2023-04-07T11:31:30;101509.00;;;13.23;52.35
37832;BME280;23671;38.090;-122.570;2023-04-07T11:33:59;101503.94;;;13.20;52.30
37832;BME280;23671;38.090;-122.570;2023-04-07T11:36:36;101501.16;;;13.22;52.47
37832;BME280;23671;38.090;-122.570;2023-04-07T11:39:03;101496.84;;;13.21;52.57
37832;BME280;23671;38.090;-122.570;2023-04-07T11:41:32;101509.00;;;13.23;51.98
37832;BME280;23671;38.090;-122.570;2023-04-07T11:44:07;101503.81;;;13.22;52.40
37832;BME280;23671;38.090;-122.570;2023-04-07T11:46:35;101500.19;;;13.23;52.37
37832;BME280;23671;38.090;-122.570;2023-04-07T11:49:10;101500.44;;;13.20;51.94
37832;BME280;23671;38.090;-122.570;2023-04-07T11:51:37;101497.19;;;13.16;51.81
37832;BME280;23671;38.090;-122.570;2023-04-07T11:54:05;101493.56;;;13.17;52.42
37832;BME280;23671;38.090;-122.570;2023-04-07T11:56:45;101489.38;;;13.15;52.14
37832;BME280;23671;38.090;-122.570;2023-04-07T11:59:23;101491.75;;;13.18;52.59
37832;BME280;23671;38.090;-122.570;2023-04-07T12:01:51;101497.19;;;13.16;52.51
37832;BME280;23671;38.090;-122.570;2023-04-07T12:04:19;101486.72;;;13.15;52.19
37832;BME280;23671;38.090;-122.570;2023-04-07T12:06:47;101480.69;;;13.13;52.82
37832;BME280;23671;38.090;-122.570;2023-04-07T12:09:30;101483.34;;;13.13;52.73
37832;BME280;23671;38.090;-122.570;2023-04-07T12:11:58;101471.03;;;13.12;51.99
37832;BME280;23671;38.090;-122.570;2023-04-07T12:14:25;101469.09;;;13.14;52.34
37832;BME280;23671;38.090;-122.570;2023-04-07T12:16:56;101475.47;;;13.11;52.80
37832;BME280;23671;38.090;-122.570;2023-04-07T12:19:28;101467.50;;;13.11;52.05
37832;BME280;23671;38.090;-122.570;2023-04-07T12:21:56;101465.84;;;13.10;52.73
37832;BME280;23671;38.090;-122.570;2023-04-07T12:24:23;101473.78;;;13.10;52.56
37832;BME280;23671;38.090;-122.570;2023-04-07T12:26:50;101462.22;;;13.11;52.56
37832;BME280;23671;38.090;-122.570;2023-04-07T12:29:17;101467.63;;;13.10;52.42
37832;BME280;23671;38.090;-122.570;2023-04-07T12:31:45;101463.44;;;13.07;52.43
37832;BME280;23671;38.090;-122.570;2023-04-07T12:34:12;101465.13;;;13.08;52.31
37832;BME280;23671;38.090;-122.570;2023-04-07T12:36:39;101465.25;;;13.07;52.71
37832;BME280;23671;38.090;-122.570;2023-04-07T12:39:06;101463.44;;;13.07;52.43
37832;BME280;23671;38.090;-122.570;2023-04-07T12:41:33;101466.91;;;13.08;52.84
37832;BME280;23671;38.090;-122.570;2023-04-07T12:44:00;101463.53;;;13.06;52.49